createdAt,value
2022-09-29T00:02:06.644Z,99825.97
2022-09-29T00:04:33.100Z,99827.88
2022-09-29T00:07:00.765Z,99827.16
2022-09-29T00:09:27.203Z,99830.00
2022-09-29T00:11:55.653Z,99828.44
2022-09-29T00:14:23.009Z,99826.81
2022-09-29T00:16:49.390Z,99832.13
2022-09-29T00:19:16.317Z,99825.19
2022-09-29T00:21:42.838Z,99820.09
2022-09-29T00:24:09.265Z,99821.00
2022-09-29T00:26:35.830Z,99821.06
2022-09-29T00:29:02.262Z,99824.69
2022-09-29T00:31:32.117Z,99828.22
2022-09-29T00:33:59.077Z,99821.25
2022-09-29T00:36:29.934Z,99820.47
2022-09-29T00:38:57.956Z,99829.25
2022-09-29T00:41:29.978Z,99824.19
2022-09-29T00:44:02.924Z,99818.94
2022-09-29T00:46:58.672Z,99833.00
2022-09-29T00:49:24.970Z,99823.41
2022-09-29T00:52:20.715Z,99834.06
2022-09-29T00:54:55.255Z,99821.91
2022-09-29T00:57:27.613Z,99818.63
2022-09-29T01:00:11.349Z,99824.00
2022-09-29T01:02:42.636Z,99827.47
2022-09-29T01:05:14.084Z,99825.00
2022-09-29T01:07:44.116Z,99820.75
2022-09-29T01:10:12.505Z,99815.59
2022-09-29T01:12:38.865Z,99822.59
2022-09-29T01:15:05.848Z,99822.66
2022-09-29T01:17:32.194Z,99814.94
2022-09-29T01:20:13.282Z,99822.00
2022-09-29T01:23:33.329Z,99821.22
2022-09-29T01:26:22.975Z,99820.25
2022-09-29T01:29:07.484Z,99817.84
2022-09-29T01:31:59.680Z,99816.16
2022-09-29T01:34:42.242Z,99828.31
2022-09-29T01:37:26.356Z,99818.81
2022-09-29T01:40:38.235Z,99824.88
2022-09-29T01:43:09.629Z,99817.00
2022-09-29T01:45:40.312Z,99824.03
2022-09-29T01:48:15.397Z,99827.56
2022-09-29T01:50:46.740Z,99818.88
2022-09-29T01:53:18.695Z,99822.34
2022-09-29T01:55:51.383Z,99818.03
2022-09-29T01:58:23.970Z,99822.41
2022-09-29T02:00:56.879Z,99819.88
2022-09-29T02:03:30.480Z,99826.03
2022-09-29T02:06:10.304Z,99833.97
2022-09-29T02:08:40.425Z,99829.59
2022-09-29T02:11:15.040Z,99829.75
2022-09-29T02:13:56.024Z,99822.97
2022-09-29T02:16:28.963Z,99829.97
2022-09-29T02:19:07.428Z,99831.75
2022-09-29T02:21:34.265Z,99832.75
2022-09-29T02:24:00.987Z,99836.38
2022-09-29T02:26:34.440Z,99828.72
2022-09-29T02:29:06.200Z,99835.63
2022-09-29T02:31:33.780Z,99841.00
2022-09-29T02:34:02.316Z,99835.84
2022-09-29T02:36:40.791Z,99836.81
2022-09-29T02:39:21.700Z,99838.63
2022-09-29T02:42:06.404Z,99836.88
2022-09-29T02:44:51.380Z,99830.88
2022-09-29T02:47:36.473Z,99835.25
2022-09-29T02:50:17.480Z,99839.63
2022-09-29T02:53:05.015Z,99833.66
2022-09-29T02:55:41.792Z,99831.84
2022-09-29T02:58:18.608Z,99837.13
2022-09-29T03:00:47.592Z,99839.69
2022-09-29T03:03:14.026Z,99840.66
2022-09-29T03:05:40.523Z,99843.28
2022-09-29T03:08:07.058Z,99844.19
2022-09-29T03:10:33.510Z,99840.72
2022-09-29T03:12:59.900Z,99838.19
2022-09-29T03:15:26.251Z,99847.78
2022-09-29T03:17:56.567Z,99842.69
2022-09-29T03:20:23.520Z,99851.56
2022-09-29T03:22:49.858Z,99842.88
2022-09-29T03:25:16.502Z,99849.09
2022-09-29T03:27:42.834Z,99847.31
2022-09-29T03:30:11.775Z,99845.63
2022-09-29T03:32:38.142Z,99842.22
2022-09-29T03:35:05.109Z,99846.59
2022-09-29T03:37:31.443Z,99843.13
2022-09-29T03:39:57.804Z,99852.66
2022-09-29T03:42:24.395Z,99851.88
2022-09-29T03:44:50.742Z,99848.41
2022-09-29T03:47:17.282Z,99852.00
2022-09-29T03:49:45.707Z,99845.13
2022-09-29T03:52:12.291Z,99846.91
2022-09-29T03:54:38.692Z,99841.75
2022-09-29T03:57:05.265Z,99847.88
2022-09-29T03:59:31.612Z,99848.97
2022-09-29T04:01:58.106Z,99845.66
2022-09-29T04:04:24.614Z,99846.63
2022-09-29T04:06:51.108Z,99842.31
2022-09-29T04:09:17.510Z,99851.84
2022-09-29T04:11:43.936Z,99853.47
2022-09-29T04:14:10.504Z,99850.72
2022-09-29T04:16:36.980Z,99855.00
2022-09-29T04:19:03.645Z,99859.19
2022-09-29T04:21:30.098Z,99867.75
2022-09-29T04:23:56.464Z,99867.69
2022-09-29T04:26:23.081Z,99868.59
2022-09-29T04:28:49.511Z,99870.31
2022-09-29T04:31:15.961Z,99874.69
2022-09-29T04:33:42.492Z,99871.16
2022-09-29T04:36:09.049Z,99872.91
2022-09-29T04:38:35.579Z,99878.22
2022-09-29T04:41:02.124Z,99877.38
2022-09-29T04:43:28.584Z,99881.72
2022-09-29T04:46:04.836Z,99881.72
2022-09-29T04:48:35.000Z,99883.38
2022-09-29T04:51:02.741Z,99890.28
2022-09-29T04:53:30.230Z,99887.75
2022-09-29T04:55:56.688Z,99889.44
2022-09-29T04:58:23.129Z,99893.75
2022-09-29T05:00:49.571Z,99892.69
2022-09-29T05:03:16.001Z,99892.69
2022-09-29T05:05:42.408Z,99901.38
2022-09-29T05:08:08.782Z,99890.06
2022-09-29T05:10:35.284Z,99883.91
2022-09-29T05:13:01.623Z,99890.81
2022-09-29T05:15:28.039Z,99894.28
2022-09-29T05:17:55.467Z,99895.13
2022-09-29T05:20:21.932Z,99888.06
2022-09-29T05:22:48.258Z,99887.31
2022-09-29T05:25:14.724Z,99896.91
2022-09-29T05:27:41.279Z,99896.16
2022-09-29T05:30:10.428Z,99890.94
2022-09-29T05:32:36.867Z,99894.34
2022-09-29T05:35:04.021Z,99895.13
2022-09-29T05:37:30.507Z,99900.19
2022-09-29T05:39:57.130Z,99897.50
2022-09-29T05:42:25.783Z,99901.81
2022-09-29T05:44:53.303Z,99893.97
2022-09-29T05:47:19.880Z,99893.00
2022-09-29T05:49:46.241Z,99902.53
2022-09-29T05:52:12.622Z,99902.53
2022-09-29T05:54:40.035Z,99899.84
2022-09-29T05:57:06.940Z,99898.03
2022-09-29T05:59:33.300Z,99900.53
2022-09-29T06:01:59.709Z,99905.56
2022-09-29T06:04:26.094Z,99903.81
2022-09-29T06:06:52.957Z,99905.50
2022-09-29T06:09:19.355Z,99902.69
2022-09-29T06:11:45.948Z,99901.50
2022-09-29T06:14:12.378Z,99907.28
2022-09-29T06:16:38.894Z,99901.78
2022-09-29T06:19:05.433Z,99907.53
2022-09-29T06:21:34.576Z,99909.06
2022-09-29T06:24:01.434Z,99905.31
2022-09-29T06:26:28.389Z,99910.28
2022-09-29T06:28:55.909Z,99904.91
2022-09-29T06:31:25.533Z,99907.47
2022-09-29T06:33:52.218Z,99914.25
2022-09-29T06:36:50.263Z,99919.63
2022-09-29T06:39:17.455Z,99919.31
2022-09-29T06:41:48.780Z,99918.66
2022-09-29T06:44:15.894Z,99916.50
2022-09-29T06:46:42.424Z,99923.91
2022-09-29T06:49:10.880Z,99924.78
2022-09-29T06:51:45.185Z,99918.66
2022-09-29T06:54:13.825Z,99926.56
2022-09-29T06:56:40.721Z,99921.31
2022-09-29T06:59:07.628Z,99915.91
2022-09-29T07:01:34.316Z,99916.81
2022-09-29T07:04:02.426Z,99913.88
2022-09-29T07:06:29.789Z,99917.88
2022-09-29T07:08:57.627Z,99915.03
2022-09-29T07:11:24.082Z,99923.53
2022-09-29T07:13:54.427Z,99926.94
2022-09-29T07:16:23.970Z,99928.38
2022-09-29T07:18:51.177Z,99928.31
2022-09-29T07:21:18.601Z,99936.06
2022-09-29T07:23:46.796Z,99929.91
2022-09-29T07:26:14.137Z,99933.81
2022-09-29T07:28:40.623Z,99939.53
2022-09-29T07:31:16.316Z,99930.63
2022-09-29T07:33:44.648Z,99930.91
2022-09-29T07:36:11.949Z,99937.84
2022-09-29T07:38:38.381Z,99937.22
2022-09-29T07:41:09.184Z,99943.56
2022-09-29T07:43:36.064Z,99939.53
2022-09-29T07:46:02.826Z,99934.47
2022-09-29T07:48:32.117Z,99942.78
2022-09-29T07:51:10.018Z,99941.13
2022-09-29T07:53:37.057Z,99944.59
2022-09-29T07:56:08.845Z,99944.91
2022-09-29T07:58:36.205Z,99949.75
2022-09-29T08:01:05.187Z,99945.63
2022-09-29T08:03:32.525Z,99948.34
2022-09-29T08:05:59.181Z,99945.06
2022-09-29T08:08:26.436Z,99955.56
2022-09-29T08:10:53.980Z,99953.41
2022-09-29T08:13:20.710Z,99956.31
2022-09-29T08:15:47.251Z,99955.06
2022-09-29T08:18:13.780Z,99953.56
2022-09-29T08:20:40.214Z,99959.09
2022-09-29T08:23:07.723Z,99962.03
2022-09-29T08:25:36.135Z,99965.66
2022-09-29T08:28:02.790Z,99967.72
2022-09-29T08:30:29.579Z,99970.56
2022-09-29T08:32:56.824Z,99977.50
2022-09-29T08:35:23.329Z,99975.03
2022-09-29T08:37:49.855Z,99978.09
2022-09-29T08:40:17.772Z,99971.84
2022-09-29T08:43:04.123Z,99978.78
2022-09-29T08:45:35.766Z,99978.41
2022-09-29T08:48:21.902Z,99984.56
2022-09-29T08:50:59.417Z,99984.53
2022-09-29T08:53:29.658Z,99982.97
2022-09-29T08:56:26.148Z,99988.06
2022-09-29T08:58:52.777Z,99982.78
2022-09-29T09:02:01.339Z,99986.44
2022-09-29T09:05:01.802Z,99988.13
2022-09-29T09:07:37.893Z,99997.78
2022-09-29T09:10:14.464Z,99992.53
2022-09-29T09:13:05.566Z,99999.22
2022-09-29T09:15:55.556Z,99999.38
2022-09-29T09:18:51.644Z,100003.03
2022-09-29T09:21:33.490Z,99994.28
2022-09-29T09:24:46.830Z,99995.22
2022-09-29T09:27:20.353Z,99995.72
2022-09-29T09:29:49.496Z,99999.97
2022-09-29T09:32:28.332Z,99998.59
2022-09-29T09:35:23.859Z,100003.31
2022-09-29T09:37:53.703Z,100007.41
2022-09-29T09:40:24.840Z,100016.53
2022-09-29T09:43:02.926Z,100010.31
2022-09-29T09:45:53.981Z,100007.78
2022-09-29T09:48:32.851Z,100008.13
2022-09-29T09:51:05.492Z,100005.06
2022-09-29T09:53:40.463Z,100011.59
2022-09-29T09:56:38.847Z,100014.84
2022-09-29T09:59:26.715Z,100017.91
2022-09-29T10:01:53.342Z,100012.09
2022-09-29T10:04:20.482Z,100014.53
2022-09-29T10:06:46.914Z,100018.81
2022-09-29T10:09:15.462Z,100019.44
2022-09-29T10:11:43.111Z,100017.94
2022-09-29T10:14:26.017Z,100021.75
2022-09-29T10:17:03.325Z,100018.91
2022-09-29T10:19:52.829Z,100020.94
2022-09-29T10:24:47.509Z,100016.41
2022-09-29T10:27:20.675Z,100017.09
2022-09-29T10:29:49.570Z,100009.19
2022-09-29T10:32:25.804Z,100012.56
2022-09-29T10:35:02.641Z,100010.03
2022-09-29T10:37:41.405Z,100016.16
2022-09-29T10:40:07.733Z,100020.00
2022-09-29T10:42:39.770Z,100022.22
2022-09-29T10:45:25.900Z,100021.03
2022-09-29T10:47:58.470Z,100027.75
2022-09-29T10:50:26.358Z,100034.88
2022-09-29T10:52:56.663Z,100038.56
2022-09-29T10:55:26.058Z,100043.53
2022-09-29T10:57:55.890Z,100043.78
2022-09-29T11:00:35.524Z,100047.47
2022-09-29T11:03:16.045Z,100049.59
2022-09-29T11:06:02.220Z,100049.94
2022-09-29T11:08:29.640Z,100051.53
2022-09-29T11:11:20.632Z,100054.03
2022-09-29T11:13:48.726Z,100048.84
2022-09-29T11:16:23.918Z,100055.47
2022-09-29T11:18:53.996Z,100057.50
2022-09-29T11:21:20.392Z,100072.34
2022-09-29T11:24:07.678Z,100061.31
2022-09-29T11:26:43.942Z,100076.53
2022-09-29T11:29:37.788Z,100077.88
2022-09-29T11:32:19.687Z,100078.81
2022-09-29T11:34:56.046Z,100070.66
2022-09-29T11:37:34.989Z,100071.69
2022-09-29T11:40:25.515Z,100078.66
2022-09-29T11:42:58.743Z,100081.19
2022-09-29T11:45:43.467Z,100088.13
2022-09-29T11:48:30.016Z,100080.44
2022-09-29T11:51:04.456Z,100081.00
2022-09-29T11:54:08.055Z,100085.00
2022-09-29T11:56:59.169Z,100084.91
2022-09-29T11:59:59.624Z,100091.72
2022-09-29T12:02:41.288Z,100093.22
2022-09-29T12:05:29.635Z,100095.09
2022-09-29T12:08:23.349Z,100099.09
2022-09-29T12:11:13.079Z,100103.69
2022-09-29T12:13:56.362Z,100102.25
2022-09-29T12:16:29.796Z,100099.44
2022-09-29T12:19:09.255Z,100100.88
2022-09-29T12:21:46.963Z,100099.38
2022-09-29T12:24:36.167Z,100100.03
2022-09-29T12:27:08.185Z,100091.88
2022-09-29T12:29:53.245Z,100097.63
2022-09-29T12:32:31.594Z,100102.91
2022-09-29T12:35:05.980Z,100099.19
2022-09-29T12:37:46.771Z,100104.34
2022-09-29T12:40:59.374Z,100099.09
2022-09-29T12:43:52.036Z,100101.06
2022-09-29T12:46:36.919Z,100106.66
2022-09-29T12:49:22.029Z,100110.72
2022-09-29T12:51:50.553Z,100111.00
2022-09-29T12:54:39.239Z,100119.13
2022-09-29T12:57:08.836Z,100111.16
2022-09-29T12:59:48.985Z,100116.00
2022-09-29T13:02:37.474Z,100112.78
2022-09-29T13:05:33.557Z,100113.25
2022-09-29T13:08:25.927Z,100114.16
2022-09-29T13:11:29.865Z,100122.69
2022-09-29T13:14:22.603Z,100129.97
2022-09-29T13:17:02.909Z,100121.81
2022-09-29T13:19:57.879Z,100125.91
2022-09-29T13:22:43.073Z,100134.41
2022-09-29T13:25:23.826Z,100131.31
2022-09-29T13:27:52.929Z,100137.13
2022-09-29T13:30:24.520Z,100129.03
2022-09-29T13:32:59.953Z,100136.31
2022-09-29T13:35:27.476Z,100134.72
2022-09-29T13:37:57.328Z,100133.44
2022-09-29T13:40:26.769Z,100134.50
2022-09-29T13:42:58.182Z,100131.88
2022-09-29T13:45:27.986Z,100133.75
2022-09-29T13:48:01.777Z,100134.22
2022-09-29T13:50:50.840Z,100133.13
2022-09-29T13:53:22.995Z,100129.06
2022-09-29T13:56:12.217Z,100137.75
2022-09-29T13:58:48.191Z,100130.41
2022-09-29T14:01:31.724Z,100138.22
2022-09-29T14:03:59.024Z,100138.34
2022-09-29T14:06:43.227Z,100137.50
2022-09-29T14:09:22.578Z,100140.06
2022-09-29T14:11:51.786Z,100134.75
2022-09-29T14:14:35.177Z,100136.44
2022-09-29T14:17:06.330Z,100138.13
2022-09-29T14:19:46.980Z,100140.19
2022-09-29T14:22:32.193Z,100142.91
2022-09-29T14:25:10.859Z,100140.13
2022-09-29T14:27:40.697Z,100139.22
2022-09-29T14:30:09.863Z,100138.44
2022-09-29T14:32:52.201Z,100139.44
2022-09-29T14:35:34.960Z,100145.47
2022-09-29T14:38:28.715Z,100144.59
2022-09-29T14:40:56.399Z,100146.22
2022-09-29T14:43:47.970Z,100145.84
2022-09-29T14:47:03.330Z,100142.75
2022-09-29T14:50:10.208Z,100138.81
2022-09-29T14:53:09.155Z,100146.69
2022-09-29T14:55:44.597Z,100151.19
2022-09-29T14:58:59.782Z,100151.34
2022-09-29T15:01:28.963Z,100149.41
2022-09-29T15:04:07.104Z,100143.38
2022-09-29T15:06:33.664Z,100144.91
2022-09-29T15:09:04.122Z,100150.97
2022-09-29T15:11:39.197Z,100151.72
2022-09-29T15:14:21.334Z,100156.13
2022-09-29T15:17:12.242Z,100158.00
2022-09-29T15:19:57.758Z,100160.00
2022-09-29T15:22:52.698Z,100160.75
2022-09-29T15:25:40.789Z,100159.44
2022-09-29T15:28:19.145Z,100160.94
2022-09-29T15:30:48.868Z,100176.47
2022-09-29T15:33:22.498Z,100170.19
2022-09-29T15:35:53.498Z,100165.63
2022-09-29T15:38:40.198Z,100166.00
2022-09-29T15:41:16.747Z,100173.41
2022-09-29T15:43:51.628Z,100172.28
2022-09-29T15:46:22.098Z,100176.88
2022-09-29T15:49:17.355Z,100182.88
2022-09-29T15:51:56.439Z,100189.63
2022-09-29T15:54:24.041Z,100189.72
2022-09-29T15:57:09.069Z,100187.97
2022-09-29T15:59:53.219Z,100195.53
2022-09-29T16:02:31.312Z,100198.34
2022-09-29T16:05:04.735Z,100199.56
2022-09-29T16:07:34.527Z,100210.09
2022-09-29T16:10:13.234Z,100206.97
2022-09-29T16:12:48.596Z,100208.75
2022-09-29T16:15:50.852Z,100211.31
2022-09-29T16:18:23.685Z,100208.91
2022-09-29T16:20:51.834Z,100213.63
2022-09-29T16:23:34.597Z,100218.41
2022-09-29T16:26:06.726Z,100215.78
2022-09-29T16:28:36.244Z,100228.09
2022-09-29T16:31:30.169Z,100226.56
2022-09-29T16:34:02.084Z,100233.31
2022-09-29T16:36:36.704Z,100230.59
2022-09-29T16:39:05.287Z,100233.44
2022-09-29T16:41:38.037Z,100245.06
2022-09-29T16:44:23.203Z,100237.91
2022-09-29T16:47:12.870Z,100241.66
2022-09-29T16:49:55.958Z,100235.81
2022-09-29T16:52:41.204Z,100246.63
2022-09-29T16:55:27.397Z,100253.91
2022-09-29T16:58:03.573Z,100253.69
2022-09-29T17:00:30.394Z,100250.75
2022-09-29T17:02:57.754Z,100254.03
2022-09-29T17:05:25.428Z,100249.72
2022-09-29T17:08:00.171Z,100260.06
2022-09-29T17:10:26.725Z,100262.22
2022-09-29T17:12:54.659Z,100259.91
2022-09-29T17:15:22.389Z,100264.00
2022-09-29T17:17:50.781Z,100264.47
2022-09-29T17:20:20.527Z,100271.34
2022-09-29T17:22:48.810Z,100269.88
2022-09-29T17:25:15.295Z,100272.53
2022-09-29T17:28:02.798Z,100270.81
2022-09-29T17:30:29.300Z,100270.81
2022-09-29T17:32:58.063Z,100267.56
2022-09-29T17:35:39.482Z,100274.22
2022-09-29T17:38:11.179Z,100268.25
2022-09-29T17:41:02.312Z,100271.81
2022-09-29T17:43:31.256Z,100271.22
2022-09-29T17:45:59.266Z,100271.09
2022-09-29T17:48:26.870Z,100276.81
2022-09-29T17:50:56.322Z,100283.38
2022-09-29T17:53:25.247Z,100281.09
2022-09-29T17:55:54.470Z,100289.28
2022-09-29T17:58:22.735Z,100298.16
2022-09-29T18:00:51.379Z,100287.78
2022-09-29T18:03:19.231Z,100298.44
2022-09-29T18:05:48.362Z,100299.38
2022-09-29T18:08:17.605Z,100300.34
2022-09-29T18:10:50.394Z,100307.53
2022-09-29T18:13:16.880Z,100298.97
2022-09-29T18:15:43.689Z,100306.78
2022-09-29T18:18:12.375Z,100304.91
2022-09-29T18:20:40.130Z,100316.28
2022-09-29T18:23:06.561Z,100310.31
2022-09-29T18:25:33.999Z,100306.97
2022-09-29T18:28:01.473Z,100314.06
2022-09-29T18:30:39.826Z,100318.59
2022-09-29T18:33:12.608Z,100316.97
2022-09-29T18:35:41.256Z,100315.13
2022-09-29T18:38:08.489Z,100313.44
2022-09-29T18:40:35.035Z,100316.91
2022-09-29T18:43:01.980Z,100314.34
2022-09-29T18:45:31.045Z,100324.00
2022-09-29T18:48:06.306Z,100324.94
2022-09-29T18:50:39.153Z,100331.03
2022-09-29T18:53:05.729Z,100328.56
2022-09-29T18:55:32.329Z,100329.53
2022-09-29T18:57:59.941Z,100330.47
2022-09-29T19:00:31.697Z,100335.78
2022-09-29T19:02:59.921Z,100332.38
2022-09-29T19:05:29.778Z,100334.16
2022-09-29T19:07:58.803Z,100338.34
2022-09-29T19:10:25.895Z,100339.06
2022-09-29T19:12:58.465Z,100345.88
2022-09-29T19:15:25.957Z,100347.44
2022-09-29T19:17:55.974Z,100350.84
2022-09-29T19:20:24.664Z,100349.00
2022-09-29T19:22:51.814Z,100357.53
2022-09-29T19:25:29.009Z,100357.59
2022-09-29T19:27:59.350Z,100363.75
2022-09-29T19:30:26.475Z,100367.19
2022-09-29T19:32:53.902Z,100370.50
2022-09-29T19:35:23.464Z,100376.47
2022-09-29T19:37:50.347Z,100377.97
2022-09-29T19:40:22.244Z,100373.47
2022-09-29T19:42:49.132Z,100372.50
2022-09-29T19:45:15.853Z,100379.47
2022-09-29T19:47:42.583Z,100383.13
2022-09-29T19:50:28.530Z,100380.75
2022-09-29T19:52:56.050Z,100381.75
2022-09-29T19:55:23.480Z,100382.63
2022-09-29T19:57:49.889Z,100379.81
2022-09-29T20:00:19.931Z,100387.63
2022-09-29T20:02:47.151Z,100384.06
2022-09-29T20:05:15.464Z,100387.53
2022-09-29T20:07:46.349Z,100396.16
2022-09-29T20:10:15.196Z,100395.88
2022-09-29T20:12:42.442Z,100393.94
2022-09-29T20:15:11.789Z,100402.81
2022-09-29T20:17:40.097Z,100401.06
2022-09-29T20:20:08.505Z,100404.53
2022-09-29T20:22:36.377Z,100409.00
2022-09-29T20:25:05.255Z,100411.75
2022-09-29T20:27:31.820Z,100413.47
2022-09-29T20:29:58.333Z,100414.25
2022-09-29T20:32:24.779Z,100422.84
2022-09-29T20:34:51.316Z,100421.16
2022-09-29T20:37:17.678Z,100427.31
2022-09-29T20:39:44.212Z,100421.50
2022-09-29T20:42:11.736Z,100428.53
2022-09-29T20:44:38.280Z,100435.69
2022-09-29T20:47:05.875Z,100433.06
2022-09-29T20:49:32.473Z,100432.00
2022-09-29T20:51:59.223Z,100429.16
2022-09-29T20:54:25.826Z,100431.72
2022-09-29T20:56:53.544Z,100438.69
2022-09-29T20:59:23.003Z,100433.44
2022-09-29T21:01:50.758Z,100440.53
2022-09-29T21:04:19.779Z,100442.38
2022-09-29T21:06:49.134Z,100442.66
2022-09-29T21:09:18.547Z,100446.19
2022-09-29T21:11:47.062Z,100446.34
2022-09-29T21:14:18.293Z,100443.97
2022-09-29T21:16:47.094Z,100445.13
2022-09-29T21:19:14.452Z,100447.03
2022-09-29T21:21:41.452Z,100453.06
2022-09-29T21:24:08.958Z,100457.59
2022-09-29T21:26:35.398Z,100455.81
2022-09-29T21:29:02.925Z,100462.66
2022-09-29T21:31:32.087Z,100462.44
2022-09-29T21:34:06.364Z,100464.22
2022-09-29T21:36:35.382Z,100460.06
2022-09-29T21:39:06.273Z,100464.88
2022-09-29T21:41:38.011Z,100468.78
2022-09-29T21:44:09.243Z,100466.41
2022-09-29T21:46:35.902Z,100466.47
2022-09-29T21:49:04.751Z,100463.84
2022-09-29T21:51:37.752Z,100462.88
2022-09-29T21:54:06.174Z,100463.78
2022-09-29T21:56:36.224Z,100469.25
2022-09-29T21:59:02.688Z,100473.75
2022-09-29T22:01:29.247Z,100473.97
2022-09-29T22:03:56.546Z,100471.59
2022-09-29T22:06:28.715Z,100479.72
2022-09-29T22:08:56.123Z,100477.25
2022-09-29T22:11:25.882Z,100490.56
2022-09-29T22:13:55.695Z,100490.69
2022-09-29T22:16:25.857Z,100493.44
2022-09-29T22:19:18.326Z,100483.72
2022-09-29T22:21:40.375Z,100490.22
2022-09-29T22:24:07.197Z,100494.38
2022-09-29T22:26:33.576Z,100493.34
2022-09-29T22:29:01.543Z,100492.41
2022-09-29T22:31:29.490Z,100492.13
2022-09-29T22:34:01.250Z,100491.09
2022-09-29T22:36:30.279Z,100490.09
2022-09-29T22:38:56.823Z,100495.19
2022-09-29T22:41:24.120Z,100489.78
2022-09-29T22:43:52.210Z,100490.78
2022-09-29T22:46:19.085Z,100497.72
2022-09-29T22:48:45.502Z,100493.31
2022-09-29T22:51:11.981Z,100489.84
2022-09-29T22:53:38.465Z,100497.97
2022-09-29T22:56:12.006Z,100494.91
2022-09-29T22:58:39.995Z,100498.91
2022-09-29T23:01:13.716Z,100498.56
2022-09-29T23:03:42.217Z,100497.19
2022-09-29T23:06:09.470Z,100505.50
2022-09-29T23:08:36.730Z,100496.09
2022-09-29T23:11:05.412Z,100496.34
2022-09-29T23:13:32.826Z,100503.28
2022-09-29T23:16:11.688Z,100499.72
2022-09-29T23:18:44.071Z,100498.13
2022-09-29T23:21:13.283Z,100499.09
2022-09-29T23:23:39.620Z,100498.34
2022-09-29T23:26:06.154Z,100497.50
2022-09-29T23:28:32.491Z,100500.75
2022-09-29T23:31:06.768Z,100495.50
2022-09-29T23:33:33.798Z,100499.09
2022-09-29T23:36:12.160Z,100499.88
2022-09-29T23:38:58.975Z,100498.81
2022-09-29T23:41:27.280Z,100500.31
2022-09-29T23:43:55.529Z,100507.16
2022-09-29T23:46:26.664Z,100512.25
2022-09-29T23:48:53.308Z,100512.94
2022-09-29T23:51:19.751Z,100511.97
2022-09-29T23:53:46.110Z,100507.66
2022-09-29T23:56:12.607Z,100513.66
2022-09-29T23:58:39.045Z,100518.00
